> The Twenty-Ninth Presentation > Registration & Results > Results > 1998 Marathon > 1998 Big Sur Marathon Women

1998 Big Sur Marathon Women

1998 Big Sur Marathon - WOMEN
04/26/98 - Carmel, CA

				
1. Janina Saxer, Zurich 37 2:46:24 35-39/1

2. Kim Marie Goff, Greenville 36 2:50:17 35-39/2

3. Ludmilla Ilina, Albuquerque 28 2:54:13 25-29/1

4. Blanca Juarez Romero, Puebla 27 2:54:17 25-29/2

5. Kim J Hart, Salt Lake City 24 3:03:38 20-24/1

6. Caroline Zent, Larkspur 34 3:08:46 30-34/1

7. Lisa Dorfman, Miami 37 3:09:51 35-39/3

8. Chrissy Ferguson, Fremont 37 3:13:00 35-39/4

9. Cindy Reeder, New York 35 3:14:16 35-39/5

10. Elise Cappella, Berkeley 26 3:14:17 25-29/3

11. Laurie Boyo, San Francisco 24 3:19:15 20-24/2

12. Sara Stockman, Hermosa 23 3:19:22 20-24/3

13. Susan Petronio, Santa Barbara 35 3:20:06 35-39/6

14. Philomena Chandra, Santa Cruz 45 3:21:48 45-49/1

15. Mariko Fujinaka, Templeton 32 3:22:18 30-34/2

16. Jenna Lear, Saratoga 24 3:23:03 20-24/4

17. Heidi Wildy, Phoenix 33 3:23:12 30-34/3

18. Susan Kielsmeier, Agoura Hills 44 3:23:24 40-44/1

19. Gunhild Swanson, Spokane 53 3:24:34 50-54/1

20. Jane Wang, San Jose 29 3:25:33 25-29/4

21. Betty Perkins, North Vancouver 40 3:26:28 40-44/2

22. Tammy Pereira, Stanford 26 3:27:11 25-29/5

23. Donna Robertson, Anchorage 35 3:27:53 35-39/7

24. Caroline Mc Call, El Cerrito 32 3:27:57 30-34/4

25. Pam Quarenghi, St Louis 30 3:28:10 30-34/5

26. Sylvia Sommer, Bern 31 3:29:54 30-34/6

27. Luisa Gomes, Santa Clara 38 3:30:17 35-39/8

28. Denise Icaza, Manhattan Beach 33 3:31:03 30-34/7

29. Debra Schrakamp, Danville 37 3:31:40 35-39/9

30. Diane Lottmann, Columbia 25 3:31:46 25-29/6

31. Vanessa Ivelich, Berkeley 36 3:32:24 35-39/10

32. Kay Sanborn, Huntersville 39 3:32:37 35-39/11

33. Tammy Hunter, Amherst 35 3:32:52 35-39/12

34. Wendy Horne, San Francisco 30 3:33:40 30-34/8

35. Amy Sproston, Lawrence 24 3:34:39 20-24/5

36. Sara Mc Cormick, Salt Lake City 35 3:35:15 35-39/13

37. Tracey Ellenberg, Charlotte 35 3:35:31 35-39/14

38. Linda Winsper, Ottowa 36 3:36:05 35-39/15

39. Christl Heine, Berlin 49 3:36:09 45-49/2

40. Judy Sambrailo, Aromas 40 3:36:10 40-44/3

41. Loree Pinnavaia, Saratoga 31 3:36:14 30-34/9

42. Ann Falk, Albert Lea 33 3:36:22 30-34/10

43. Joan Lang, Irvine 33 3:36:23 30-34/11

44. Marcy Iredale, Vancouver 34 3:36:35 30-34/12

45. Kate Monahan, Stanford 22 3:36:44 20-24/6

46. Denise Desaulniers, New York 32 3:36:59 30-34/13

47. Amy Sanyer, Salt Lake City 36 3:37:00 35-39/16

48. Kate Lawrence, San Antonio 33 3:37:17 30-34/14

49. Gretchen Stipe, Seattle 34 3:37:21 30-34/15

50. Emily Drucker, Claremont 21 3:37:21 20-24/7

51. Amy Regan, Los Alamos 34 3:37:31 30-34/16

52. Victoria Tiase, New York 25 3:37:35 25-29/7

53. Suzanne Garney, Santa Fe 38 3:37:58 35-39/17

54. Sue Chen, San Leandro 45 3:38:12 45-49/3

55. Heidi Cleveland, San Francisco 23 3:38:17 20-24/8

56. Kimberly Berg-Trnka, Seaside 28 3:38:45 25-29/8

57. Sherri Conrod, Vancouver 26 3:39:01 25-29/9

58. Katie German, Whittier 20 3:39:20 20-24/9

59. Holly Hoyt, San Francisco 35 3:39:28 35-39/18

60. Lindsay Covington, Aspen 24 3:40:28 20-24/10

61. Beritta Zeil, Pfinztal 54 3:40:48 50-54/2

62. Tina Gauvin, Pasadena 35 3:41:36 35-39/19

63. Shawna Jones, New Orleans 27 3:41:40 25-29/10

64. Susan Love, Carmel 49 3:42:13 45-49/4

65. Kely Fisher, Menlo Park 28 3:42:32 25-29/11

66. Chris Patton, Salinas 45 3:42:41 45-49/5

67. Jill Perry, Monterey 27 3:43:17 25-29/12

68. Lori Kriesel, Salt Lake City 34 3:43:38 30-34/17

69. Gloria Shipley, Monterey 44 3:43:44 40-44/4

70. Kyong Martin, San Mateo 43 3:43:50 40-44/5

71. Lori Wadsworth, Redford 38 3:43:59 35-39/20

72. Linda Sereno, Salinas 38 3:44:03 35-39/21

73. Joann Neil, Spokane 35 3:44:08 35-39/22

74. Carolyn Schwartz, Oakland 23 3:44:09 20-24/11

75. Yael Van Hulst, Vernon 30 3:45:13 30-34/18

76. Stacia Carney, San Jose 29 3:45:52 25-29/13

77. Judy Mc Cullough, Santa Clara 36 3:45:53 35-39/23

78. Marjorie Tennyson, Brunswick 44 3:46:06 40-44/6

79. Cindy Millar, San Diego 45 3:46:13 45-49/6

80. Paige Peeples, Scottsdale 27 3:46:22 25-29/14

81. Judith Biletnikoff, San Francisco 28 3:46:41 25-29/15

82. Laura Meadors, Ocean 20 3:46:42 20-24/12

83. Nancy Karadanis, Reno 42 3:46:59 40-44/7

84. Katherine P. Mc Crea, Nashville 42 3:47:13 40-44/8

85. Kristen Matheson, Oakland 22 3:47:14 20-24/13

86. Cindy Russell, Boulder 40 3:47:31 40-44/9

87. Karen Mitchell, York 47 3:47:31 45-49/7

88. Irene Herremans, Calgary 49 3:47:37 45-49/8

89. Therese Watson, Ventura 32 3:48:24 30-34/19

90. Deborah Osborn, Lemoore 37 3:48:42 35-39/24

91. Nancy Conway, Tucson 23 3:48:55 20-24/14

92. Lauren Petrucci, San Diego 26 3:49:20 25-29/16

93. Sandra Stark, Hithonia 44 3:49:40 40-44/10

94. Kate Barrett, San Francisco 22 3:49:47 20-24/15

95. Tanya Cady, Concord 45 3:49:48 45-49/9

96. Melissa Anderson, Berkeley 22 3:49:54 20-24/16

97. Micol Rothman, Menlo Park 26 3:50:13 25-29/17

98. Rachel Allyn, San Francisco 24 3:50:14 20-24/17

99. Veronica Poon, Hong Kong 31 3:51:17 30-34/20

100. Eliza Armstrong, New York 31 3:51:35 30-34/21

101. Linda Mc Fadden, Modesto 35 3:51:43 35-39/25

102. Sarah Manes, Washington 26 3:51:51 25-29/18

103. Joni Scholz, Monmouth 46 3:51:55 45-49/10

104. Gayla Johnson, Sunnyvale 34 3:51:56 30-34/22

105. Monica Marovish, San Francisco 28 3:51:57 25-29/19

106. Elke Maennchen, 63584 Grunday 42 3:52:05 40-44/11

107. Gael Jones, Thunder Bay 51 3:52:08 50-54/3

108. Patricia Charity, Kings Park 40 3:52:10 40-44/12

109. Christine Almon, Encinitas 28 3:52:15 25-29/20

110. Langley Eide, Short Hills 22 3:52:35 20-24/18

111. Teresa Marchetti, Nashville 33 3:52:50 30-34/23

112. Heather Gesualdi, Darien 33 3:52:53 30-34/24

113. Suzanne Sullivan, Saratoga 41 3:53:09 40-44/13

114. Anne Mc Bride, Pittsburgh 39 3:53:13 35-39/26

115. Jacque Walsh, Bakersfield 31 3:53:25 30-34/25

116. Kathy Caraccioli, Salinas 31 3:53:43 30-34/26

117. Jennifer Tripp, Palo Alto 33 3:53:54 30-34/27

118. Karen Chan, Salinas 24 3:54:20 20-24/19

119. Lisa Storm, Salinas 35 3:54:35 35-39/27

120. La Dawn Stone, San Francisco 26 3:54:40 25-29/21

121. Kassie Huhtanen, Enfield 31 3:55:20 30-34/28

122. Katie Andrews, Berkeley 27 3:55:22 25-29/22

123. Juliann Hanson-Zlatev, Denver 30 3:55:27 30-34/29

124. Christine Scheible, Ann Arbor 26 3:55:35 25-29/23

125. Lucia Chatzky, Bedford Hills 39 3:55:38 35-39/28

126. Ellen Stern, Manhattan Beach 47 3:55:38 45-49/11

127. Mary Soukup-Selness, Mabel 34 3:55:38 30-34/30

128. Sue Covington, Littleton 34 3:55:41 30-34/31

129. Hillary Copp, Santa Barbara 24 3:55:53 20-24/20

130. Kirsten Jensen, Miami 49 3:56:07 45-49/12

131. Barbara Pane, Pittsburgh 29 3:56:08 25-29/24

132. Jeri Pugh, Salt Lake City 46 3:56:09 45-49/13

133. Debra Cully-Smith, Gibsonia 45 3:56:12 45-49/14

134. Rita Schildknecht, Burlingame 34 3:56:20 30-34/32

135. Nancy Griggs, Modesto 36 3:56:29 35-39/29

136. Mary Rinderer, Sonoita 37 3:56:31 35-39/30

137. Annie Rooke, Santa Cruz 31 3:56:35 30-34/33

138. Cindy Wilberding, Carmel 30 3:56:36 30-34/34

139. Jennifer Stec, Wapwallopen 23 3:56:36 20-24/21

140. Khira-Lisa Adams, Stanford 26 3:56:45 25-29/25

141. Rachel Wieland, Denver 27 3:56:48 25-29/26

142. Kimberly Nelson, Pleasanton 36 3:57:16 35-39/31

143. Kathryn Donahoe, Los Gatos 30 3:57:28 30-34/35

144. Sheila Skok, Seattle 36 3:57:32 35-39/32

145. Emily Doan, San Jose 23 3:57:36 20-24/22

146. Suzette Baker, Corte Madera 35 3:57:38 35-39/33

147. Maggie Hughey, Princeton 27 3:57:49 25-29/27

148. Pamela Hawley, Palo Alto 28 3:58:01 25-29/28

149. Mary Hale, Grandvew 29 3:58:16 25-29/29

150. Adriana Ballesteros, Mexico City 34 3:58:18 30-34/36

151. Tamara Elias, New Orleans 29 3:58:22 25-29/30

152. Juliana Van Olphen, Ann Arbor 30 3:58:23 30-34/37

153. Flavia Casassola, Citrus Heights 33 3:58:41 30-34/38

154. Dana Wenter, Lafayette 24 3:58:45 20-24/23

155. Camille Panzarello, Irvine 23 3:59:12 20-24/24

156. Missy Lawler, Lemon Grove 32 3:59:12 30-34/39

157. Wendy Cordier, San Diego 29 3:59:12 25-29/31

158. Kathryn Picanco, Campbell 27 3:59:17 25-29/32

159. Johnna Marchant, Monterey 33 3:59:26 30-34/40

160. Mj Loveland, Anchorage 30 3:59:33 30-34/41

161. Joyce Parr, Watsonville 43 3:59:48 40-44/14

162. Adri Herman, Marietta 45 3:59:56 45-49/15

163. Laura Ornelaz, Sylmar 32 4:00:21 30-34/42

164. Deborah Juergenson, Modesto 29 4:00:21 25-29/33

165. Karen Wright, Walnut Creek 25 4:00:26 25-29/34

166. Sarah Spikes, Los Olivos 26 4:00:45 25-29/35

167. Courtenay Labson, Washington 31 4:00:53 30-34/43

168. Inmaculada Lebron, Riverside 38 4:00:53 35-39/34

169. Denise Johnson, Monterey 38 4:01:31 35-39/35

170. Sally Smith, Pacific Grove 47 4:01:51 45-49/16

171. Brenda Clark, Santa Maria 25 4:01:55 25-29/36

172. Heidi Schenone, Lafayette 27 4:01:56 25-29/37

173. Mona Landfield, Idyllwild 36 4:01:56 35-39/36

174. Kim Moyano, Morgan Hill 32 4:02:12 30-34/44

175. Joan Keiser, Ann Arbor 44 4:02:41 40-44/15

176. Courtney Palko, San Luis Obispo 22 4:02:44 20-24/25

177. Barbara Ashe, Lotus 49 4:02:45 45-49/17

178. Judy Rianda, Salinas 34 4:02:53 30-34/45

179. Diane Stickler, Shorewood Mn 35 4:03:02 35-39/37

180. Setsuko Kaneko, Yokohama 62 4:03:07 60-64/1

181. Lindsay Eagle, Washington 33 4:03:08 30-34/46

182. Dora Overs, Monterey 38 4:03:11 35-39/38

183. Eva Lopez, Turlock 34 4:03:16 30-34/47

184. Jaimee Hicks, Davis 23 4:03:30 20-24/26

185. Christine Troetschler, Portland 36 4:03:49 35-39/39

186. Julie Mottes, Walnut 23 4:03:51 20-24/27

187. Lynne Mohling, Boulder 26 4:03:56 25-29/38

188. Kenetta Fitzgerald, Lafayette 37 4:04:02 35-39/40

189. Nancy Stecher, Clayton 23 4:04:07 20-24/28

190. Else Von Hollander, Boulder 32 4:04:14 30-34/48

191. Penny Tyree, Huntington Beach 56 4:04:35 55-59/1

192. Julie Kimball, Santa Cruz 41 4:05:19 40-44/16

193. Christina Massell, San Diego 27 4:05:22 25-29/39

194. Dynthia Dearth, Mariposa 40 4:05:37 40-44/17

195. Liana Desio, Douglas 30 4:05:39 30-34/49

196. Terry Narazaki, Phoenix 32 4:06:00 30-34/50

197. Shannon Nicholson, Manhattan Beach 31 4:06:04 30-34/51

198. Kristin Bijur, San Francisco 26 4:06:12 25-29/40

199. Jodi Hilty, Berkeley 27 4:06:12 25-29/41

200. Jamie Housman, Carmel 37 4:06:13 35-39/41

201. Kaisa Lopez, Los Angeles 21 4:06:21 20-24/29

202. Erika Heine, Pebble Beach 24 4:06:31 20-24/30

203. Rita Spears, Austin 39 4:06:43 35-39/42

204. Traci Main, Monterey 24 4:06:49 20-24/31

205. Deborah Peri, Scottsdale 27 4:06:49 25-29/42

206. Mirella Fidanza, Toronto 43 4:06:57 40-44/18

207. Virginia Valentine, Las Vegas 41 4:07:07 40-44/19

208. Kara Plese, Boulder 25 4:07:25 25-29/43

209. Sandy Brandt, Lakeland 55 4:07:29 55-59/2

210. Kirstin Woo, San Francisco 22 4:07:29 20-24/32

211. Nancy Ross, Fenton 42 4:07:30 40-44/20

212. Kelly Kruse, Redwood City 27 4:07:36 25-29/44

213. Kathleen Kelly, Pittsburgh 42 4:07:47 40-44/21

214. Catherine Rodoni, Santa Cruz 30 4:07:57 30-34/52

215. Judy Shipman, Rancho Cordova 57 4:08:06 55-59/3

216. Ria Rugg, Glendale 53 4:08:07 50-54/4

217. Kerri Matthews, Auburn 30 4:08:08 30-34/53

218. Holly Vreeke, Houston 27 4:08:12 25-29/45

219. Tomoko Matsui, Taito-Ku, Tokyo 32 4:08:17 30-34/54

220. Beverly Bethart, Mount Juliet 40 4:08:20 40-44/22

221. Mary Witzel, Chicago 32 4:08:27 30-34/55

222. Ellen Lenihan, San Francisco 23 4:08:30 20-24/33

223. Marie Gibb, Lafayette 33 4:09:00 30-34/56

224. Kristin Freeman, Livermore 27 4:09:03 25-29/46

225. Sheryl Diamond, Rolling Hills Estat 50 4:09:05 50-54/5

226. Stephanie Smith, East Brunswick 30 4:09:21 30-34/57

227. Melissa Michie, Ann Arbor 28 4:09:31 25-29/47

228. Cordes Lindow, Washington 29 4:09:33 25-29/48

229. Joni Laura, San Diego 37 4:09:35 35-39/43

230. Lynn Boughton, Pacific Grove 41 4:09:35 40-44/23

231. Susan Mc Daniel, Tucson 34 4:09:38 30-34/58

232. Marcia Katz, Tucson 44 4:09:39 40-44/24

233. Erika Krueger, Waldbrown 63 4:09:41 60-64/2

234. Donna Johnson, San Jose 27 4:10:03 25-29/49

235. Jennifer Candelario, Groveland 31 4:10:15 30-34/59

236. Rosa Richard, Madera 42 4:10:17 40-44/25

237. Judy-Clare French, Prunedale 56 4:10:38 55-59/4

238. Sabrina Berry, Burlingame 24 4:10:45 20-24/34

239. Terri Partch, Silverthorne 30 4:10:54 30-34/60

240. Annie B Murray, Atlanta 24 4:11:03 20-24/35

241. Kathy Wever, Edwardsville 35 4:11:12 35-39/44

242. Susan Nelson, Thunder Bay 48 4:11:19 45-49/18

243. Jennifer Dayem, Mountain View 23 4:11:21 20-24/36

244. Alisa Wade, Oakland 29 4:11:50 25-29/50

245. Kerty Nilsson, Chicago 31 4:11:59 30-34/61

246. Lisa Kutschera, Costa Mesa 34 4:12:10 30-34/62

247. Jolyn Aaker, Oakland 23 4:12:29 20-24/37

248. Kathy Grassel, Albuquerque 48 4:12:30 45-49/19

249. Lisa Kadlec, Bismarck 39 4:12:31 35-39/45

250. Cecilia Recchia, Salt Lake City 26 4:12:32 25-29/51

251. Nancy Williams, Louisville 39 4:12:37 35-39/46

252. Amy Hogoboom, Clayton 23 4:12:41 20-24/38

253. Carol Stahl, Presidio Of Monterey 28 4:13:04 25-29/52

254. Rossanna Echegoyen, San Francisco 31 4:13:09 30-34/63

255. Loreen Ozaki, Seaside 40 4:13:09 40-44/26

256. Alex Echery, San Francisco 29 4:13:13 25-29/53

257. Elisa Verduzco, Pomona 34 4:13:22 30-34/64

258. Felicia Bushman, Pacific Palisades 30 4:13:26 30-34/65

259. Elizabeth Nilsen, Carmel 29 4:13:31 25-29/54

260. Carla Parmellee, Charleston 29 4:13:41 25-29/55

261. Dawn Murphy, Dallas 33 4:13:42 30-34/66

262. Catherine Donnelly, Swarthmore 38 4:13:42 35-39/47

263. Jackie Taylor, Stateline 42 4:13:52 40-44/27

264. Donna Byers-Hauser, Monterey 31 4:13:54 30-34/67

265. Lynn Bohlman, Carmel 28 4:14:13 25-29/56

266. Donna Tobias, Menlo Park 27 4:14:17 25-29/57

267. Woody Roses Crawford, Santa Rosa 44 4:14:20 40-44/28

268. Mary Lynagh, Burlingame 39 4:14:25 35-39/48

269. Susan Mietling, Chattanooga 37 4:14:28 35-39/49

270. Gail Musolf, Minneapolis 31 4:14:37 30-34/68

271. Gretchen Pokorski, St Petersburg 23 4:14:42 20-24/39

272. Susan Meyer, Monterey 30 4:14:46 30-34/69

273. Jan Aaker, 29 4:14:53 25-29/58

274. Pam Moseley, Nashville 30 4:15:19 30-34/70

275. Marian Lyons, San Francisco 51 4:15:22 50-54/6

276. Jeanette Palmer, Yorba Linda 46 4:15:26 45-49/20

277. Dawn Waterhouse, Saratoga 55 4:15:33 55-59/5

278. Julie Heimbach, Denver 27 4:15:35 25-29/59

279. Penny Lyons, Southampton 34 4:15:37 30-34/71

280. Kimberly Wilkinson, Pacific Grove 39 4:15:38 35-39/50

281. Jeanie Lassen, Kihei 37 4:15:40 35-39/51

282. Michelle Carroll, Thousand Oaks 31 4:15:54 30-34/72

283. Sandra Baxter, Springville 38 4:16:24 35-39/52

284. Nikki Niesley, Buena Park 29 4:16:24 25-29/60

285. Michele Naftal, Studio City 31 4:17:06 30-34/73

286. Alexandra Pokorny, Minneapolis 24 4:17:11 20-24/40

287. Katherine Riley, Corona Del Mar 32 4:17:17 30-34/74

288. Diana Roberts, Santa Cruz 43 4:17:22 40-44/29

289. Eris Miller, Concord 22 4:17:38 20-24/41

290. Linda Williams, Pacific Grove 41 4:17:39 40-44/30

291. Valerie Huffman, Yellow Springs 41 4:17:43 40-44/31

292. Dana Ziegler, Oceanside 38 4:17:45 35-39/53

293. Joan Mc Nett-Hackbert, Salinas 44 4:17:52 40-44/32

294. Cindy Howes, San Jose 41 4:18:08 40-44/33

295. Kelly Mc Cormick, Cincinnati 23 4:18:16 20-24/42

296. Steven Neubauer, Oakley 47 4:18:22 45-49/21

297. Amy Harry, Fort Lauderdale 38 4:18:34 35-39/54

298. Catherine Ballantyne, Palo Alto 30 4:18:43 30-34/75

299. Lisa Cleary, Redondo Beach 30 4:18:53 30-34/76

300. Kedra Enslow, Denver 27 4:18:55 25-29/61

301. Lee Hicks, Los Gatos 54 4:19:04 50-54/7

302. Regina Gardiner, Seaside 32 4:19:08 30-34/77

303. Deanna Desart, Hanford 23 4:19:12 20-24/43

304. Tania Roeser, Sacramento 27 4:19:18 25-29/62

305. Irene Felton, Fort Collins 37 4:19:24 35-39/55

306. Heather Langendorfer, Mountain View 25 4:19:24 25-29/63

307. Patricia Soto, San Francisco 42 4:19:26 40-44/34

308. Joan Rolston, Santa Cruz 34 4:19:29 30-34/78

309. Diana Haas, San Bruno 32 4:19:35 30-34/79

310. Louise Wells, Oakland 24 4:19:39 20-24/44

311. Jessica Booher, Oakland 28 4:19:40 25-29/64

312. Sheila Joyce, Dayton 41 4:19:46 40-44/35

313. Samantha Pinney, San Francisco 31 4:19:52 30-34/80

314. Connie Gumulauskis, Pacific Grove 38 4:19:58 35-39/56

315. Anitra Seitamo, Fairfax 54 4:20:02 50-54/8

316. Jenny Hodge, Reno 25 4:20:06 25-29/65

317. Lisa Nickerson, Pacific Grove 36 4:20:10 35-39/57

318. Kathy Chamberlain, Aptos 40 4:20:19 40-44/36

319. Maria Cabrera, San Diego 37 4:20:35 35-39/58

320. Judy Lamontagne, Duncan 44 4:20:40 40-44/37

321. Pb Vandentorn, Novato 24 4:20:45 20-24/45

322. Stephanie Soleau, Glastonbory 25 4:20:48 25-29/66

323. Dena Noble, San Jose 37 4:20:49 35-39/59

324. Kelly Christopher, Denver 34 4:20:50 30-34/81

325. Beth Kozura, Phoenix 33 4:20:53 30-34/82

326. Lisa Preiss, Manchester 31 4:20:53 30-34/83

327. Patricia Cook, Warrensburg 46 4:21:00 45-49/22

328. Karen Mello, Bend 31 4:21:07 30-34/84

329. Hui Jacobson, El Cerrito 28 4:21:24 25-29/67

330. Carolyn Pinizzotto, Salinas 36 4:21:26 35-39/60

331. Patti Koske, Fremont 45 4:21:32 45-49/23

332. Nora Wilson, Houston 41 4:21:33 40-44/38

333. Lisa Landrum, Laguna Beach 26 4:21:48 25-29/68

334. Amy Stefano, Corona Del Mar 25 4:21:52 25-29/69

335. Pam Keller, Trenton 40 4:22:06 40-44/39

336. Susan Erickson, Seattle 27 4:22:08 25-29/70

337. Elizabeth Morgan, Cambridge 24 4:22:15 20-24/46

338. Elaine Green, Carmel 43 4:22:32 40-44/40

339. Grace Wright, Etobicoke 39 4:22:41 35-39/61

340. Kiran Winfield, Houston 30 4:22:43 30-34/85

341. Kim Liscombe, Goleta 32 4:22:47 30-34/86

342. Judy Riestra, Clarksville 39 4:22:59 35-39/62

343. Chris Sebelski, Hermosa Beach 27 4:23:02 25-29/71

344. Amy Back, Palo Alto 30 4:23:22 30-34/87

345. Suzanne Hillifield, Houston 25 4:23:28 25-29/72

346. Lisa Barry, Fair Oaks 37 4:23:39 35-39/63

347. Lisa Feldman, Tiburon 38 4:23:41 35-39/64

348. Cheryl Lana, San Francisco 24 4:23:44 20-24/47

349. Bobbie Garcia, Davis 49 4:23:45 45-49/24

350. Margaret Byrne, Minneapolis 52 4:23:50 50-54/9

351. Cal Bordonaro, San Rafael 40 4:24:16 40-44/41

352. Karen Austin, Dallas 45 4:24:24 45-49/25

353. Deanna Jury, Visalia 37 4:24:26 35-39/65

354. Laurie Machado, Denver 28 4:24:52 25-29/73

355. Camille Fitzsimmons, Burlingame 44 4:25:00 40-44/42

356. Joan Coffey, Tustin 45 4:25:01 45-49/26

357. Sue Simonet, River Falls 49 4:25:26 45-49/27

358. Amy Barrett, Salinas 26 4:25:27 25-29/74

359. Christine M Farkas, Mount Pleasant 31 4:25:29 30-34/88

360. Kathryn Vidal, Houston 46 4:26:19 45-49/28

361. Jacquelyn Jackson, Salinas 37 4:26:30 35-39/66

362. Catherine Paredes, Borrego Springs 38 4:26:31 35-39/67

363. Katie Maleta, Soquel 36 4:26:50 35-39/68

364. Rachel Judson, Manhattan Beach 28 4:26:56 25-29/75

365. Jan Hetherington, San Francisco 47 4:26:57 45-49/29

366. Michelle Allen, Plymouth 32 4:27:10 30-34/89

367. Mary Dose, Ramsey 55 4:27:10 55-59/6

368. Ingrid Aquino, Seaside 27 4:27:21 25-29/76

369. Valerie Long, San Jose 41 4:27:23 40-44/43

370. Teri Lee, Saratog 35 4:27:24 35-39/69

371. Cathy Smith, Monte Sereno 45 4:27:29 45-49/30

372. Mary Koehl, Chevy Chase 28 4:27:34 25-29/77

373. Cathy Shea, Colchester 39 4:27:47 35-39/70

374. Natalia Alvarado, Gainesville 23 4:27:48 20-24/48

375. Adrienne Lahti, Columbia 44 4:27:57 40-44/44

376. Donna Voorhees, Roebling 49 4:27:58 45-49/31

377. Nicole Parish, San Diego 23 4:28:02 20-24/49

378. Deborah Hannon, Norcross 27 4:28:16 25-29/78

379. Susan Safley Davis, Decatur 49 4:28:18 45-49/32

380. Khartoon Brown, Stockton 61 4:28:32 60-64/3

381. Dolores Priegnitz, Pleasanton 45 4:28:34 45-49/33

382. Cheryl Hinchman, Felton 51 4:28:46 50-54/10

383. Pamela Dealey, Dallas 46 4:28:49 45-49/34

384. Michelle Jung, Campbell 39 4:29:07 35-39/71

385. Anne Cabrinha, Los Angeles 22 4:29:08 20-24/50

386. Kathleen Beman, Los Altos 23 4:29:25 20-24/51

387. Angela Mc Cormick, Boulder 39 4:29:27 35-39/72

388. Kimberly Wooten, Baton Rouge 38 4:29:28 35-39/73

389. Sally Tyree, Yorba Linda 55 4:29:32 55-59/7

390. Hollie Stillwell, Narragansett 27 4:29:46 25-29/79

391. Holly Peters, Agoura Hills 17 4:29:57 16-19/1

392. Jan Dillon, Brighton 36 4:30:08 35-39/74

393. Lisa Lomba, Oakland 27 4:30:10 25-29/80

394. Katie Donnelly, Oakland 27 4:30:11 25-29/81

395. Heather Anderson, Los Olivos 30 4:30:11 30-34/90

396. Jeanette Gurmendi, Berkeley 30 4:30:13 30-34/91

397. Jacquie Barry, Cloverdale 38 4:30:15 35-39/75

398. Cheryl Brush, Seattle 38 4:30:18 35-39/76

399. Nancy Patton, Lubbock 42 4:30:30 40-44/45

400. Kim Campbell Ferland, Carlsbad 30 4:30:38 30-34/92

401. Cami Ferris, San Francisco 24 4:30:45 20-24/52

402. Billie Boles, Marine 37 4:30:52 35-39/77

403. Danae Aitchison, Sacramento 29 4:30:54 25-29/82

404. Caroline Fisher, Vail 37 4:31:01 35-39/78

405. Diane Du Bois, Burlington 46 4:31:08 45-49/35

406. Nella Abelson, Pasadena 34 4:31:08 30-34/93

407. Diana Blackmon, Oklahoma City 45 4:31:17 45-49/36

408. Robyn Carlson, Grand Rapids 40 4:31:23 40-44/46

409. Terra Foster, Carmel Valley 23 4:31:28 20-24/53

410. Georgie Gillis, Mississavga 52 4:31:40 50-54/11

411. Jodie Karjala, Bloomington 31 4:31:43 30-34/94

412. Jennifer Simons, Park City 42 4:31:52 40-44/47

413. Deborah Hanagan, Monterey 32 4:32:00 30-34/95

414. Becky Fleming, Coral Springs 41 4:32:00 40-44/48

415. Kristen Sikora, Woodstock 41 4:32:04 40-44/49

416. Diane Williams, Toronto 38 4:32:07 35-39/79

417. Victoria Mc Evoy, Branford 43 4:32:33 40-44/50

418. Elisabeth Cooper, Portland 48 4:32:44 45-49/37

419. Monica Botello, Lawndale 26 4:32:50 25-29/83

420. Kelly Pace, Seaside 24 4:33:03 20-24/54

421. Christina Moore, Beavercreek 40 4:33:17 40-44/51

422. Mary Mooney, Charleston 33 4:33:41 30-34/96

423. Gina Malandra, Haverhill 33 4:33:54 30-34/97

424. Mary Skipwith, Carmel Valley 27 4:33:57 25-29/84

425. Barbra Orozco, Whittier 29 4:34:04 25-29/85

426. Gretchen Frey, Littleton 36 4:34:06 35-39/80

427. Jessica Ciccolella, Clayton 25 4:34:08 25-29/86

428. Melissa Gavlick, Sugar Land 28 4:34:10 25-29/87

429. Lara Stockinger, San Francisco 29 4:34:10 25-29/88

430. Marilyn Pilarski, Thornhill 50 4:34:25 50-54/12

431. Dawn Bedwell, Phoenix 35 4:34:29 35-39/81

432. Carolyn Dueck, Los Gatos 22 4:34:32 20-24/55

433. Mary Watt, Toronto 36 4:34:43 35-39/82

434. Donna Troyna, Mountain View 43 4:34:51 40-44/52

435. Anna Wilson, Northridge 45 4:34:53 45-49/38

436. Tammy Chamberlain, Denver 35 4:34:58 35-39/83

437. Dina Clark, Denver 35 4:34:58 35-39/84

438. Cat Kvasnicka, Pacific Grove 28 4:35:07 25-29/89

439. Julie Boatman, Boulder 26 4:35:15 25-29/90

440. Brenda Marsh, Pacific Palisades 40 4:35:15 40-44/53

441. Graciela Valenzuela, Pasadena 30 4:35:18 30-34/98

442. Deb Rogozinski, El Dorado Hills 38 4:35:19 35-39/85

443. Ruthann Conklin, Ojai 34 4:35:41 30-34/99

444. Julia Ewart, San Ramon 24 4:35:41 20-24/56

445. Susan Stephens, Las Vegas 41 4:35:43 40-44/54

446. Tina Tam, Los Angeles 23 4:35:59 20-24/57

447. Maureen Webb, Roseville 26 4:36:09 25-29/91

448. Barbara Fitzgerald, Sherman Oaks 37 4:36:22 35-39/86

449. Kalita Ford, Salt Lake City 53 4:36:26 50-54/13

450. Unkyong Hand, Pacific Grove 27 4:36:28 25-29/92

451. Lana Kollross, Marietta 36 4:36:29 35-39/87

452. Patrick Mullins, Walnut Creek 28 4:36:33 25-29/93

453. Katie Smalzel, Oakland 35 4:36:34 35-39/88

454. Gail Husson, San Leandro 43 4:36:37 40-44/55

455. Helga Greim, Sullivan's Island 49 4:36:48 45-49/39

456. Dina Shorey, San Diego 27 4:37:03 25-29/94

457. Beth Bisignano, Seattle 33 4:37:08 30-34/100

458. Cindy Hutcherson, Monterey 58 4:37:28 55-59/8

459. Karen Mendenhall, Albuquerque 49 4:38:12 45-49/40

460. Mikyong Hand, Lakewood 29 4:38:18 25-29/95

461. Keren Noble, Ontario 32 4:38:26 30-34/101

462. Joan Gary, Fremont 61 4:38:30 60-64/4

463. Lydia Casey, Monterey 27 4:38:32 25-29/96

464. Linda Semple, Larkspur 33 4:38:42 30-34/102

465. Lyanne Schuster, Fairfax 40 4:38:43 40-44/56

466. Jennifer Ellis, Lakeside 27 4:38:52 25-29/97

467. Elisabeth Robinson, Monterey 23 4:39:01 20-24/58

468. Rene Diebold, Granite Falls 49 4:39:01 45-49/41

469. Elena Andreotti, Berkeley 23 4:39:19 20-24/59

470. Betty Fink, Lompoc 31 4:39:19 30-34/103

471. Gudrun Fink, Lompoc 54 4:39:22 50-54/14

472. Cheri Brandt, San Jose 53 4:39:34 50-54/15

473. Mary Austin, Seaside 37 4:39:36 35-39/89

474. Stephanie Bethurum, Diamond Bar 55 4:39:46 55-59/9

475. Kelly Lund, San Ramon 27 4:39:51 25-29/98

476. Julie Shirley, Fort Collins 30 4:39:57 30-34/104

477. Joanne Golla, Toronto 39 4:40:07 35-39/90

478. Lydia Moran, Carmel 42 4:40:10 40-44/57

479. Julie Djie, San Francisco 29 4:40:16 25-29/99

480. Colette Heun, Boulder 50 4:40:19 50-54/16

481. Rebecca Young, Claremont 20 4:40:26 20-24/60

482. Margie Lopez-Read, Placerville 45 4:40:28 45-49/42

483. Lisa Edeleanu, Danville 40 4:40:33 40-44/58

484. Katharine Lussen, San Francisco 23 4:40:33 20-24/61

485. Emma Turlo, Santa Clara 42 4:40:42 40-44/59

486. Mary Eckstine, Kettle River 48 4:40:53 45-49/43

487. Michele Lamy, Theize 50 4:40:59 50-54/17

488. Annette Dillon, Trenton 40 4:41:01 40-44/60

489. Sayward Lomada, Chico 19 4:41:14 16-19/2

490. Christie Edinger, Burbank 55 4:41:15 55-59/10

491. Carmen Laine, Friendswood 36 4:41:20 35-39/91

492. Linnea Bohn, San Francisco 32 4:41:21 30-34/105

493. Donna Marovish, Sierra Madre 50 4:41:27 50-54/18

494. Vera Safran, Aptos 48 4:41:34 45-49/44

495. Michelle Buchan, Sandy 37 4:41:36 35-39/92

496. Michele Mc Closkey, Monterey 37 4:41:41 35-39/93

497. Karen Boltz, Walnut Creek 40 4:41:44 40-44/61

498. Laurel Strand, Oakland 41 4:41:48 40-44/62

499. Beth Stewart, Hesperia 30 4:41:48 30-34/106

500. Katie Miller, Chicago 28 4:41:52 25-29/100

501. Sharon Williams, White Rock 41 4:41:55 40-44/63

502. Jennifer Faeth, Danville 23 4:41:57 20-24/62

503. Kimberley Harmon, Belvedere 42 4:42:12 40-44/64

504. Oralia Arce, Sunnyvale 28 4:42:16 25-29/101

505. Linda Hiltunen, Alta Loma 50 4:42:17 50-54/19

506. Mary Ehrlich, Perris 70 4:42:18 70-74/1

507. Leesa Weichert, Chicago 31 4:42:24 30-34/107

508. Sheila Scally, Sacramento 47 4:42:28 45-49/45

509. Debbie Lucus, Loomis 40 4:42:39 40-44/65

510. Julie Shoffner, Sacramento 26 4:42:40 25-29/102

511. Pam Medhurst, San Diego 44 4:42:44 40-44/66

512. Kathy Hilaski, Sausalito 28 4:42:45 25-29/103

513. Linda Miles, Gainesville 30 4:42:49 30-34/108

514. Natalie Marchio, Antioch 32 4:43:07 30-34/109

515. Renee Wilson, Fort Jones 29 4:43:09 25-29/104

516. Cherie Rephan, Boulder Creek 39 4:43:09 35-39/94

517. Andrea Riha, Burlington 38 4:43:15 35-39/95

518. Courtney Stoerdsma, Redwood City 37 4:43:15 35-39/96

519. Julie North, New York 36 4:43:41 35-39/97

520. Bev Petersen, Soquel 58 4:43:41 55-59/11

521. Deborah Gray, Sugar Land 39 4:43:43 35-39/98

522. Dee Booth, Los Gatos 39 4:44:21 35-39/99

523. Cindy Jouras, Soquel 40 4:44:59 40-44/67

524. Cindy Lawson, Simi Valley 41 4:45:01 40-44/68

525. Teresa Morris, Memphis 40 4:45:01 40-44/69

526. Judith Hasko, Palo Alto 34 4:45:10 30-34/110

527. Susan Kaspari, Aspen 23 4:45:11 20-24/63

528. Diana Cap, Centerport 21 4:45:11 20-24/64

529. Barbara Zeller, Saint Cyr Av M.D'or 46 4:45:22 45-49/46

530. Claire Cameron, San Francisco 25 4:45:38 25-29/105

531. Sandra Torres, San Jose 40 4:45:44 40-44/70

532. Patricia Johnston, Carmel 37 4:46:07 35-39/100

533. Denise King, Eagan 38 4:46:07 35-39/101

534. Kim Ngo, San Jose 33 4:46:18 30-34/111

535. Terrie Brookshier, Aloha 38 4:46:39 35-39/102

536. Christine Adams, Berkeley 29 4:46:41 25-29/106

537. Melinda Cherko, Sacramento 42 4:47:07 40-44/71

538. Jacqueline Baumann, Seaside 31 4:47:08 30-34/112

539. Tracy Hughes, Menlo Park 28 4:47:35 25-29/107

540. Cameron Chabre, Del Rey Oaks 28 4:47:55 25-29/108

541. Jeny Hagemann, Berlin 49 4:47:55 45-49/47

542. Deirdre Freiberg, Ann Arbor 34 4:47:55 30-34/113

543. Daphne Harnack, Plymouth 27 4:47:55 25-29/109

544. Jeremy Opitz, Danbury 45 4:48:12 45-49/48

545. Amy Bennett, Simi Valley 26 4:48:15 25-29/110

546. Sandra Guthrie, Thunder Bay 42 4:49:16 40-44/72

547. Carol Barber, Kent 48 4:49:16 45-49/49

548. Catherine Hofman, San Francisco 27 4:49:16 25-29/111

549. Elizabeth Stevens, Corralitos 41 4:49:16 40-44/73

550. Beth Forgosh, Oakland 25 4:49:47 25-29/112

551. Beth Lorsbach, Davis 26 4:49:55 25-29/113

552. Jill Anderson, Pacific Grove 31 4:50:00 30-34/114

553. Heather Monroe, Surrey 27 4:50:04 25-29/114

554. Patricia Campbell, Vancouver 27 4:50:04 25-29/115

555. Michelle Groh, San Francisco 29 4:50:26 25-29/116

556. Diane Ligan, Lake Bluff 45 4:50:48 45-49/50

557. Mandy Christensen, Bountiful 18 4:50:55 16-19/3

558. Jhanna Dawson, Concord 30 4:51:02 30-34/115

559. Patricia Brady, Carlsbad 44 4:51:13 40-44/74

560. Sara Reynolds, 23 4:51:17 20-24/65

561. Jenifer Dooley, Redlands 25 4:51:27 25-29/117

562. Virginia Dellinger, Raleigh 27 4:51:36 25-29/118

563. Taya Bascom, Laguna Beach 31 4:51:40 30-34/116

564. Catherine Des Laurlers, Redondo Bea 52 4:51:43 50-54/20

565. Dina Fields, Rio Vista 60 4:51:46 60-64/5

566. Julie Schmidt, Ann Arbor 39 4:51:58 35-39/103

567. cecile Broussard, Lafayette 43 4:52:01 40-44/75

568. Rose Kosiarek, Monterey 34 4:52:03 30-34/117

569. Julia Bramer, Danville 34 4:52:14 30-34/118

570. Sara Whiteside, Santa Cruz 20 4:52:18 20-24/66

571. Shirley Scott, New York 52 4:52:32 50-54/21

572. Janet Gregor, Highlands Ranch 36 4:52:35 35-39/104

573. Valerie Rice, Oakdale 27 4:52:55 25-29/119

574. Donna Jones, Monterey 33 4:52:55 30-34/119

575. Karen Rieffer, Monterey 39 4:52:56 35-39/105

576. Jindra Goodman, San Jose 54 4:53:16 50-54/22

577. Lori Drexler, Colorado Springs 26 4:53:34 25-29/120

578. Jane Laub, Anoka 48 4:53:46 45-49/51

579. Rosanna Mc Cabe, Dallas 38 4:54:04 35-39/106

580. Susan Chavez, Riverside 42 4:54:09 40-44/76

581. Julie Castillo, Carlsbad 42 4:54:17 40-44/77

582. Susan Snow, Yorktown 37 4:54:20 35-39/107

583. Jill Skrabalak, South Lake Tahoe 28 4:54:23 25-29/121

584. Cynthia Panko, Tigard 34 4:55:01 30-34/120

585. Debbie Fingerut, Newberg 41 4:55:05 40-44/78

586. Shari Gosnell, Patterson 29 4:55:41 25-29/122

587. Irene Reti, Santa Cruz 36 4:55:41 35-39/108

588. Mardi Briggs, Tehachapi 56 4:55:54 55-59/12

589. Debbie Woodward, Sacramento 40 4:55:58 40-44/79

590. Julie Webster, Los Olivos 30 4:56:19 30-34/121

591. Stephanie Weber, Hillard 30 4:56:27 30-34/122

592. Colleen Gilletti, Granite Bay 45 4:56:28 45-49/52

593. Sally Korbisch, Wittenberg 42 4:56:31 40-44/80

594. Merian Harwood, Culver 26 4:56:33 25-29/123

595. Marget Lane, Carlsbad 51 4:56:35 50-54/23

596. C M Ellen Taft-Southcott, Houston 44 4:56:40 40-44/81

597. Ana De Filippi, Morro Bay 35 4:56:43 35-39/109

598. Samantha Lieberman, Monterey 17 4:56:59 16-19/4

599. Carol Lieberman, Monterey 51 4:57:00 50-54/24

600. Justina Vega, Watsonville 45 4:57:28 45-49/53

601. Traci Knudson, Evanston 27 4:58:01 25-29/124

602. Joice Barnard, Atlanta 41 4:58:10 40-44/82

603. Elizabeth King, Duluth 27 4:58:12 25-29/125

604. Frances Hung, Huntington Beach 31 4:58:14 30-34/123

605. Meg Perry, Thousand Oaks 47 4:58:14 45-49/54

606. Claire Reid, Redlands 52 4:58:16 50-54/25

607. Robyn Hoban, Vacaville 34 4:58:46 30-34/124

608. Kimberly Rubal, Pasadena 35 4:58:47 35-39/110

609. Tricia Loy, Colorado Springs 28 4:59:00 25-29/126

610. Laura Condon, Carmel 40 4:59:14 40-44/83

611. Susan Kern, Carmel 37 4:59:21 35-39/111

612. Shadia Marji, La Mirada 20 4:59:33 20-24/67

613. Rachel Salazar Carrillo, Davis 49 4:59:35 45-49/55

614. Sherri Stoneberger, Fremont 51 4:59:46 50-54/26

615. Laura Landwirth, Denver 41 4:59:46 40-44/84

616. Marlene Rivers, Encino 48 4:59:57 45-49/56

617. Catherine Grahan, Santa Cruz 42 5:00:16 40-44/85

618. Patricia Rogers, Escondido 28 5:00:17 25-29/127

619. Jennifer Stanley, Tererro 22 5:00:21 20-24/68

620. Tricia Dailey, Tererro 24 5:00:25 20-24/69

621. Ali Wick, Phoenix 23 5:00:26 20-24/70

622. Courtney Tucker, Santa Cruz 28 5:00:35 25-29/128

623. Mary Kay Edson, Sacramento 37 5:00:48 35-39/112

624. Julie Morris, Houston 30 5:00:56 30-34/125

625. Gail Brandt, Ventura 45 5:01:25 45-49/57

626. Sophia Ray, Berkeley 25 5:01:29 25-29/129

627. Mary Haas, South Bend 47 5:01:48 45-49/58

628. Joan Giniel, Cool 54 5:01:54 50-54/27

629. Marsh Wickett, Phoenix 45 5:02:21 45-49/59

630. Karen Kittle, Point Richmond 46 5:02:27 45-49/60

631. Shelby Lamotte, Point Richmond 34 5:02:27 30-34/126

632. Deanna Zallen, Denver 30 5:02:58 30-34/127

633. Rhonda Rodgers, Los Angeles 31 5:03:00 30-34/128

634. Michelle Lefevre, Denver 28 5:03:00 25-29/130

635. Gloria Dake, Salinas 62 5:03:21 60-64/6

636. Suzie Kim, Bradenton 29 5:03:43 25-29/131

637. Patricia Vaggalis, Littleton 35 5:04:10 35-39/113

638. Lisa Nicks, Salinas 37 5:04:42 35-39/114

639. Valerie Azinneira, San Francisco 26 5:04:50 25-29/132

640. Erika Hinds, Eugene 28 5:04:54 25-29/133

641. Elizabeth Clark-Dunn, Cambria 42 5:05:09 40-44/86

642. Emily Christensen, Bountiful 22 5:05:27 20-24/71

643. Marianne Ellrodt, Armonk 36 5:05:34 35-39/115

644. Sharon Hutauruk, Loma Londa 31 5:05:41 30-34/129

645. Vici Dehaan, Boulder 63 5:05:41 60-64/7

646. Andrea Muth, Salinas 33 5:05:56 30-34/130

647. Christa Losberg, Toronto 29 5:05:57 25-29/134

648. Daphne Cohen, Smithtown 37 5:06:03 35-39/116

649. Debra Cassan, Carmel 43 5:06:43 40-44/87

650. Margaret Wilmer, Santa Clara 31 5:06:48 30-34/131

651. Mary Rice, Seaside 31 5:06:52 30-34/132

652. Heather Howell, Minden 30 5:06:59 30-34/133

653. Debra Hieber, Monterey 36 5:07:00 35-39/117

654. Kay Clark, Topeka 49 5:08:00 45-49/61

655. Kathy Bush, Arlington 43 5:08:03 40-44/88

656. Denise Petrash, Palmer 30 5:08:23 30-34/134

657. Annette Fesler, Arroyo Grande 54 5:08:29 50-54/28

658. Joanne Bonasoro, Alameda 25 5:08:31 25-29/135

659. Deborah Ricketts, Ventura 44 5:09:45 40-44/89

660. Leslie Jennings, San Francisco 24 5:10:37 20-24/72

661. Elizabeth Bond, Louisville 22 5:10:48 20-24/73

662. Meghan Richmond, Portland 25 5:10:50 25-29/136

663. Katherine Boness, Lake Oswego 46 5:10:52 45-49/62

664. Debbie Osborne, Northridge 48 5:11:09 45-49/63

665. Bernadette Lange, Little Rock 45 5:11:10 45-49/64

666. Amy Goldstein, Huntington Beach 65 5:11:37 65-69/1

667. Janet Haw, Carson City 45 5:11:53 45-49/65

668. Heidi Marinaccio-Opet, Gaighersburg 32 5:12:37 30-34/135

669. Geri O'krepki, Hammond 38 5:13:02 35-39/118

670. Deborah Link, Waynesboro 29 5:13:05 25-29/137

671. Alissa Morris, Fredericksburg 23 5:13:05 20-24/74

672. Ginger Riggins, San Luis Obispo 25 5:13:08 25-29/138

673. Sherry Galloway, Monterey 51 5:13:18 50-54/29

674. Leilani Williams, Capitola 31 5:13:36 30-34/136

675. Marcy Dell, Orlando 28 5:14:30 25-29/139

676. Allegra Kim, Davis 30 5:14:32 30-34/137

677. Mary Jordan, Santa Fe 39 5:14:43 35-39/119

678. Virginia Mendoza, San Jose 30 5:14:59 30-34/138

679. Sariina Kalli, Williams 27 5:15:04 25-29/140

680. Patricia Sakamoto, Los Angeles 54 5:15:22 50-54/30

681. Julie Ferrara, Valley Park 33 5:15:23 30-34/139

682. Carmen Sgroi, Voorhees 52 5:15:31 50-54/31

683. Caroll Mortensen, Wilton 32 5:15:34 30-34/140

684. Karen Cholak, Denver 32 5:15:39 30-34/141

685. Sandra Lubkeman, Lancaster 28 5:15:57 25-29/141

686. Debra Venhaus, Ft. Pierce 44 5:16:31 40-44/90

687. Sun Young Lee-Zemitis, Seaside 24 5:16:50 20-24/75

688. Molly Northrup, Las Vegas 28 5:17:49 25-29/142

689. Andrea English, Seattle 30 5:17:51 30-34/142

690. Jeanne Golding, Colorado Springs 37 5:18:06 35-39/120

691. Susan Beek, Suquamish 51 5:18:18 50-54/32

692. Kuniyo Furuta, Mililani 41 5:18:33 40-44/91

693. Rita Kearns, San Francisco 30 5:19:21 30-34/143

694. Sheree Nash-Armstrong, Carmel Valle 42 5:19:22 40-44/92

695. Michiko Karube, Woodland Hills 46 5:19:37 45-49/66

696. Donise Costello, Bishop 36 5:19:37 35-39/121

697. Peggy Mc Kinnon, Marietta 34 5:19:42 30-34/144

698. Susan Smith, Reno 51 5:19:46 50-54/33

699. Ana Grau, Tucson 33 5:19:51 30-34/145

700. Jennifer Lee, Fremont 36 5:20:10 35-39/122

701. Cheryl Decker, Fort Lewis 45 5:20:42 45-49/67

702. Rochelle Botello, Los Angeles 28 5:20:47 25-29/143

703. Sarah Dexter, Lincoln 21 5:21:02 20-24/76

704. Roxanne Mapstone, Concord 27 5:21:46 25-29/144

705. Donna Finn, Durham 24 5:21:55 20-24/77

706. Sara Healy, Presidio Of Monterey 25 5:22:09 25-29/145

707. Donna Waida, Longmont 41 5:22:10 40-44/93

708. Mary-Jane Landrock, Manhattan Beach 49 5:22:23 45-49/68

709. Irene Fong, Alameda 43 5:22:25 40-44/94

710. Etta Palmer, Saratoga 70 5:22:37 70-74/2

711. Mary Banks, Dunwoody 33 5:22:56 30-34/146

712. Natalie Anderson, Carbondale 27 5:24:08 25-29/146

713. Sandy Kwong, Dixon 28 5:24:14 25-29/147

714. Sarah Kukuruza, Napa 23 5:24:15 20-24/78

715. Claire Brassert, San Francisco 30 5:24:23 30-34/147

716. Lisa Dougherty, Burke 33 5:24:43 30-34/148

717. Cindy Gibby, Douglasville 34 5:24:45 30-34/149

718. Lisa Turner, Lithia Springs 41 5:24:46 40-44/95

719. Ann Mac Arthur, Wolverine Lake 55 5:25:41 55-59/13

720. Ruth McHugh, Sherwood Park 40 5:26:10 40-44/96

721. Pat Turk, Galveston 54 5:26:17 50-54/34

722. Elaine Davidson, Calgary 41 5:26:33 40-44/97

723. Claudia Abuleac, Sao Paulo 35 5:26:41 35-39/123

724. Gabriella Houston, Loomis 54 5:27:56 50-54/35

725. Franca Gargiulo, Monterey 35 5:28:11 35-39/124

726. Sureya Sayadi, Fremont 37 5:28:39 35-39/125

727. Susan Pajer, Doylestown 40 5:28:39 40-44/98

728. Candy Mith, Salinas 52 5:28:43 50-54/36

729. Emerencia Szakacs, Modesto 34 5:28:44 30-34/150

730. Tina Zaich, Stockton 39 5:29:07 35-39/126

731. Joanne De Laurentis, Boulder Creek 41 5:29:10 40-44/99

732. Kelley Corsten, Colorado Springs 32 5:30:33 30-34/151

733. Ellen Brackman, Berkeley 42 5:30:45 40-44/100

734. Vera Stephenson, Louisville 37 5:30:57 35-39/127

735. Nicole Lauren, Santa Clara 36 5:31:17 35-39/128

736. Diane Mace, Monterey 19 5:31:18 16-19/5

737. Cindy Steinbrecher, Brookfield 34 5:31:39 30-34/152

738. Sue Cole, Meadow Vista 40 5:31:46 40-44/101

739. Maria Sudekum Fisher, Kansas City 40 5:32:57 40-44/102

740. Anne Wegnann, St Louis 35 5:33:17 35-39/129

741. Kathy Mc Conahey, Littleton 53 5:33:32 50-54/37

742. Melissa Golladay, San Diego 28 5:33:43 25-29/148

743. Janet Bradley, 48 5:33:43 45-49/69


Copyright © 1998 Total Race Systems, Inc.
80 Mitchell Blvd, San Rafael, CA 94903 USA
1-800-998-7904
Contact us!